Time;durP1;ratioP1;P1;durP2;ratioP2;P2;SDS_P1;SDS_P2;PMS_P1;PMS_P2;Temp;Humidity;BMP_temperature;BMP_pressure;BME280_temperature;BME280_humidity;BME280_pressure;Samples;Min_cycle;Max_cycle;Signal;HPM_P1;HPM_P2
2022/03/16 00:00:41;;;;;;;9.15;5.85;;;;;;;-5.00;100.00;102559.91;1763401;81;21209;-87
2022/03/16 00:03:10;;;;;;;10.93;5.50;;;;;;;-5.06;100.00;102556.84;1731563;81;21047;-89
2022/03/16 00:05:38;;;;;;;10.23;5.40;;;;;;;-5.11;100.00;102556.75;1731493;81;21024;-87
2022/03/16 00:08:06;;;;;;;10.43;5.25;;;;;;;-5.11;100.00;102552.94;1763043;79;21004;-87
2022/03/16 00:10:34;;;;;;;8.70;5.62;;;;;;;-5.10;100.00;102553.78;1763717;81;21060;-88
2022/03/16 00:13:02;;;;;;;9.13;5.42;;;;;;;-5.10;100.00;102550.84;1729992;82;21207;-89
2022/03/16 00:15:29;;;;;;;12.88;5.35;;;;;;;-5.09;100.00;102554.23;1763784;80;20998;-88
2022/03/16 00:17:56;;;;;;;8.30;4.85;;;;;;;-5.09;100.00;102555.50;1763827;81;21072;-88
2022/03/16 00:20:26;;;;;;;8.25;5.20;;;;;;;-5.10;100.00;102547.42;1763528;81;21032;-87
2022/03/16 00:22:53;;;;;;;9.98;5.45;;;;;;;-5.14;100.00;102550.75;1763598;81;21518;-87
2022/03/16 00:25:21;;;;;;;8.88;5.33;;;;;;;-5.15;100.00;102552.41;1763614;79;21279;-88
2022/03/16 00:27:49;;;;;;;8.55;5.45;;;;;;;-5.14;100.00;102552.02;1763716;79;21020;-88
2022/03/16 00:30:16;;;;;;;12.30;6.28;;;;;;;-5.13;100.00;102548.23;1763537;81;21037;-87
2022/03/16 00:32:43;;;;;;;11.38;5.87;;;;;;;-5.14;100.00;102544.39;1763210;81;21866;-87
2022/03/16 00:35:10;;;;;;;9.35;5.25;;;;;;;-5.16;100.00;102543.50;1729534;81;21009;-89
2022/03/16 00:37:37;;;;;;;8.88;5.37;;;;;;;-5.20;100.00;102540.03;1763386;80;21666;-88
2022/03/16 00:40:09;;;;;;;10.55;5.33;;;;;;;-5.26;100.00;102540.75;1729306;81;21656;-90
2022/03/16 00:42:38;;;;;;;10.45;5.95;;;;;;;-5.26;100.00;102540.75;1732814;81;21778;-88
2022/03/16 00:45:07;;;;;;;8.45;5.58;;;;;;;-5.27;100.00;102536.92;1763622;81;21060;-88
2022/03/16 00:47:35;;;;;;;12.10;6.00;;;;;;;-5.33;100.00;102535.52;1763669;81;21052;-88
2022/03/16 00:50:03;;;;;;;10.58;5.70;;;;;;;-5.44;100.00;102539.95;1763454;79;21294;-89
2022/03/16 00:52:33;;;;;;;10.25;5.45;;;;;;;-5.57;100.00;102544.31;1763224;81;21080;-90
2022/03/16 00:55:00;;;;;;;8.68;5.45;;;;;;;-5.68;100.00;102541.92;1763462;79;21550;-87
2022/03/16 00:57:27;;;;;;;10.82;6.08;;;;;;;-5.75;100.00;102540.52;1763606;79;21095;-88
2022/03/16 00:59:54;;;;;;;10.40;5.87;;;;;;;-5.76;100.00;102538.80;1763434;80;21017;-88
2022/03/16 01:02:21;;;;;;;10.03;5.60;;;;;;;-5.75;100.00;102545.59;1729480;81;21460;-89
2022/03/16 01:04:47;;;;;;;9.10;5.70;;;;;;;-5.76;100.00;102542.60;1763710;79;21025;-90
2022/03/16 01:07:14;;;;;;;11.28;6.33;;;;;;;-5.74;100.00;102541.36;1763527;80;21045;-89
2022/03/16 01:09:43;;;;;;;7.45;4.75;;;;;;;-5.75;100.00;102541.78;1763296;80;21139;-89
2022/03/16 01:12:10;;;;;;;8.80;5.00;;;;;;;-5.75;100.00;102538.37;1763396;79;20994;-88
2022/03/16 01:14:39;;;;;;;9.98;5.60;;;;;;;-5.76;100.00;102537.53;1763748;79;21258;-90
2022/03/16 01:17:06;;;;;;;10.98;5.37;;;;;;;-5.74;100.00;102546.44;1763578;80;21040;-88
2022/03/16 01:19:34;;;;;;;7.65;4.75;;;;;;;-5.74;100.00;102543.50;1763225;81;21522;-89
2022/03/16 01:22:04;;;;;;;6.53;4.95;;;;;;;-5.72;100.00;102542.27;1762926;79;21056;-88
2022/03/16 01:24:32;;;;;;;8.03;4.78;;;;;;;-5.72;100.00;102543.53;1763197;79;21063;-88
2022/03/16 01:26:59;;;;;;;10.98;5.42;;;;;;;-5.71;100.00;102547.36;1731182;79;21458;-89
2022/03/16 01:29:28;;;;;;;8.95;4.83;;;;;;;-5.70;100.00;102540.20;1731946;81;20974;-88
2022/03/16 01:31:56;;;;;;;7.75;4.78;;;;;;;-5.68;100.00;102533.88;1763211;81;21549;-86
2022/03/16 01:34:25;;;;;;;7.80;4.60;;;;;;;-5.62;100.00;102537.86;1732029;80;21554;-89
2022/03/16 01:36:51;;;;;;;9.75;5.78;;;;;;;-5.58;100.00;102543.44;1763799;79;21009;-91
2022/03/16 01:39:20;;;;;;;8.38;5.28;;;;;;;-5.56;100.00;102546.00;1763224;80;21224;-88
2022/03/16 01:41:50;;;;;;;12.53;6.17;;;;;;;-5.59;100.00;102544.67;1763363;80;21906;-89
2022/03/16 01:44:17;;;;;;;8.70;5.42;;;;;;;-5.62;100.00;102543.33;1764111;81;21455;-90
2022/03/16 01:46:44;;;;;;;10.90;4.67;;;;;;;-5.68;100.00;102541.92;1731351;81;21071;-89
2022/03/16 01:49:11;;;;;;;7.55;4.92;;;;;;;-5.73;100.00;102540.55;1729510;81;21124;-89
2022/03/16 01:51:38;;;;;;;13.30;6.35;;;;;;;-5.78;100.00;102534.52;1770795;80;21332;-91
2022/03/16 01:54:06;;;;;;;13.20;7.05;;;;;;;-5.87;100.00;102544.89;1759859;80;21053;-90
2022/03/16 01:56:35;;;;;;;9.48;6.35;;;;;;;-5.94;100.00;102549.77;1736481;80;21118;-90
2022/03/16 01:59:02;;;;;;;7.65;4.85;;;;;;;-6.06;100.00;102549.95;1766350;79;21029;-88
2022/03/16 02:01:29;;;;;;;8.98;5.65;;;;;;;-6.12;100.00;102549.78;1770294;81;21318;-88
2022/03/16 02:03:57;;;;;;;9.95;5.85;;;;;;;-6.14;100.00;102553.09;1704508;79;21287;-89
2022/03/16 02:06:24;;;;;;;10.68;6.83;;;;;;;-6.14;100.00;102554.38;1789913;79;21059;-88
2022/03/16 02:08:52;;;;;;;9.05;5.20;;;;;;;-6.14;100.00;102553.98;1790768;79;21066;-88
2022/03/16 02:11:19;;;;;;;9.08;5.83;;;;;;;-6.21;100.00;102561.83;1713462;82;21012;-90
2022/03/16 02:13:48;;;;;;;10.93;5.65;;;;;;;-6.23;100.00;102553.73;1760360;80;21562;-89
2022/03/16 02:16:16;;;;;;;9.43;5.03;;;;;;;-6.25;100.00;102554.94;1759905;81;21295;-88
2022/03/16 02:18:43;;;;;;;9.53;4.65;;;;;;;-6.27;100.00;102553.19;1760134;80;21041;-89
2022/03/16 02:21:12;;;;;;;7.33;5.22;;;;;;;-6.24;100.00;102557.94;1759849;80;20998;-87
2022/03/16 02:23:41;;;;;;;10.18;5.55;;;;;;;-6.22;100.00;102557.99;1760168;81;21522;-89
2022/03/16 02:26:12;;;;;;;8.25;5.42;;;;;;;-6.20;100.00;102556.33;1769566;79;21548;-91
2022/03/16 02:28:40;;;;;;;12.20;6.80;;;;;;;-6.18;100.00;102558.50;1757173;79;21117;-91
2022/03/16 02:31:07;;;;;;;11.93;6.33;;;;;;;-6.16;100.00;102558.53;1755709;80;21071;-90
2022/03/16 02:33:37;;;;;;;16.12;8.35;;;;;;;-6.13;100.00;102554.82;1780369;80;21007;-90
2022/03/16 02:36:04;;;;;;;10.58;6.03;;;;;;;-6.11;100.00;102559.53;1780338;79;21083;-89
2022/03/16 02:38:31;;;;;;;17.25;6.67;;;;;;;-6.12;100.00;102560.34;1780503;79;21813;-89
2022/03/16 02:40:58;;;;;;;12.90;6.78;;;;;;;-6.17;100.00;102561.50;1780310;79;21658;-89
2022/03/16 02:43:25;;;;;;;18.75;8.23;;;;;;;-6.23;100.00;102558.38;1763183;80;21452;-90
2022/03/16 02:45:52;;;;;;;12.10;7.17;;;;;;;-6.25;100.00;102560.02;1759649;80;21072;-90
2022/03/16 02:48:22;;;;;;;21.12;7.35;;;;;;;-6.26;100.00;102553.25;1734112;81;21060;-89
2022/03/16 02:50:50;;;;;;;13.45;7.22;;;;;;;-6.25;100.00;102554.94;1761475;80;21025;-90
2022/03/16 02:53:19;;;;;;;13.62;6.42;;;;;;;-6.22;100.00;102551.66;1761136;80;21241;-89
2022/03/16 02:55:47;;;;;;;14.83;7.90;;;;;;;-6.19;100.00;102552.98;1758635;80;21055;-90
2022/03/16 02:58:16;;;;;;;11.63;6.45;;;;;;;-6.16;100.00;102550.53;1761344;81;21517;-89
2022/03/16 03:00:46;;;;;;;13.77;7.07;;;;;;;-6.17;100.00;102555.58;1761714;80;21099;-88
2022/03/16 03:03:13;;;;;;;9.90;5.95;;;;;;;-6.21;100.00;102547.88;1735525;81;21414;-89
2022/03/16 03:05:40;;;;;;;9.65;6.33;;;;;;;-6.22;100.00;102548.69;1761325;80;21258;-88
2022/03/16 03:08:07;;;;;;;11.43;7.47;;;;;;;-6.25;100.00;102542.69;1710900;82;21593;-87
2022/03/16 03:10:34;;;;;;;11.80;6.60;;;;;;;-6.29;100.00;102543.45;1737880;81;21514;-89
2022/03/16 03:13:01;;;;;;;12.45;6.42;;;;;;;-6.30;100.00;102548.06;1770735;79;20995;-87
2022/03/16 03:15:30;;;;;;;9.15;6.25;;;;;;;-6.31;100.00;102547.19;1780231;79;21604;-90
2022/03/16 03:17:57;;;;;;;9.73;5.95;;;;;;;-6.30;100.00;102542.98;1780246;79;21343;-88
2022/03/16 03:20:25;;;;;;;9.68;6.45;;;;;;;-6.30;100.00;102545.52;1780263;79;21520;-88
2022/03/16 03:22:51;;;;;;;12.68;7.00;;;;;;;-6.31;100.00;102543.80;1779786;79;21027;-89
2022/03/16 03:25:18;;;;;;;8.73;5.87;;;;;;;-6.35;100.00;102539.91;1780445;79;20992;-91
2022/03/16 03:27:46;;;;;;;11.60;6.95;;;;;;;-6.36;100.00;102550.87;1780042;79;21055;-90
2022/03/16 03:30:13;;;;;;;12.07;6.53;;;;;;;-6.38;100.00;102559.25;1756031;79;21272;-89
2022/03/16 03:32:42;;;;;;;11.63;7.28;;;;;;;-6.40;100.00;102553.28;1745199;79;21067;-89
2022/03/16 03:35:09;;;;;;;9.80;6.78;;;;;;;-6.39;100.00;102553.73;1744489;81;21080;-90
2022/03/16 03:37:36;;;;;;;11.80;6.40;;;;;;;-6.42;100.00;102558.31;1759438;81;21673;-89
2022/03/16 03:40:05;;;;;;;15.78;8.90;;;;;;;-6.44;100.00;102554.03;1730944;81;21082;-89
2022/03/16 03:42:33;;;;;;;16.62;8.90;;;;;;;-6.45;100.00;102554.84;1731196;82;21168;-90
2022/03/16 03:45:00;;;;;;;24.43;11.12;;;;;;;-6.46;100.00;102559.07;1730806;82;21469;-89
2022/03/16 03:47:27;;;;;;;16.80;9.00;;;;;;;-6.46;100.00;102560.73;1730891;82;21861;-90
2022/03/16 03:49:55;;;;;;;14.28;7.50;;;;;;;-6.48;100.00;102564.50;1731082;82;21101;-89
2022/03/16 03:52:22;;;;;;;14.25;7.35;;;;;;;-6.48;100.00;102558.16;1735368;80;21041;-89
2022/03/16 03:54:50;;;;;;;11.35;7.58;;;;;;;-6.47;100.00;102559.88;1763231;79;21962;-88
2022/03/16 03:57:17;;;;;;;11.73;7.22;;;;;;;-6.48;100.00;102562.35;1783751;78;21635;-87
2022/03/16 03:59:44;;;;;;;11.53;7.12;;;;;;;-6.50;100.00;102563.59;1795452;78;21500;-89
2022/03/16 04:02:13;;;;;;;10.40;6.47;;;;;;;-6.51;100.00;102559.33;1785456;78;21487;-89
2022/03/16 04:04:41;;;;;;;13.88;7.60;;;;;;;-6.54;100.00;102555.05;1764813;78;21572;-89
2022/03/16 04:07:10;;;;;;;13.68;7.17;;;;;;;-6.55;100.00;102559.66;1795494;78;21960;-89
2022/03/16 04:09:38;;;;;;;25.05;12.90;;;;;;;-6.55;100.00;102562.62;1743337;79;21025;-90
2022/03/16 04:12:07;;;;;;;22.02;11.60;;;;;;;-6.54;100.00;102564.34;1729589;81;21073;-88
2022/03/16 04:14:34;;;;;;;23.73;11.70;;;;;;;-6.55;100.00;102558.39;1722319;81;21066;-90
2022/03/16 04:17:02;;;;;;;23.20;11.30;;;;;;;-6.54;100.00;102561.80;1757231;80;21098;-89
2022/03/16 04:19:30;;;;;;;19.73;9.15;;;;;;;-6.53;100.00;102564.38;1760381;78;21240;-87
2022/03/16 04:21:57;;;;;;;25.90;12.03;;;;;;;-6.54;100.00;102565.19;1746258;80;21748;-90
2022/03/16 04:24:24;;;;;;;14.45;8.33;;;;;;;-6.55;100.00;102568.95;1757230;78;21667;-87
2022/03/16 04:26:53;;;;;;;13.72;7.30;;;;;;;-6.58;100.00;102571.00;1727890;81;21524;-89
2022/03/16 04:29:20;;;;;;;12.98;6.45;;;;;;;-6.59;100.00;102569.67;1757846;80;21018;-89
2022/03/16 04:31:47;;;;;;;10.50;6.95;;;;;;;-6.59;100.00;102568.41;1762335;81;21324;-88
2022/03/16 04:34:14;;;;;;;12.13;6.67;;;;;;;-6.59;100.00;102568.41;1761863;81;21049;-89
2022/03/16 04:36:42;;;;;;;11.38;6.15;;;;;;;-6.59;100.00;102569.67;1761615;81;21013;-91
2022/03/16 04:39:09;;;;;;;11.10;6.58;;;;;;;-6.56;100.00;102568.50;1761674;81;20962;-88
2022/03/16 04:41:36;;;;;;;16.90;8.08;;;;;;;-6.52;100.00;102572.43;1761630;81;21076;-89
2022/03/16 04:44:04;;;;;;;16.20;8.45;;;;;;;-6.46;100.00;102569.21;1761479;81;21268;-88
2022/03/16 04:46:31;;;;;;;16.23;9.40;;;;;;;-6.39;100.00;102572.75;1729937;81;21020;-90
2022/03/16 04:49:01;;;;;;;19.25;8.15;;;;;;;-6.30;100.00;102575.95;1761371;81;32524;-90
2022/03/16 04:51:27;;;;;;;15.32;9.35;;;;;;;-6.23;100.00;102571.49;1761652;81;21101;-89
2022/03/16 04:54:05;;;;;;;13.48;8.60;;;;;;;-6.17;100.00;102572.06;1760856;81;21832;-90
2022/03/16 04:56:34;;;;;;;13.30;7.87;;;;;;;-6.10;100.00;102572.25;1755636;81;21566;-90
2022/03/16 04:59:01;;;;;;;19.40;9.38;;;;;;;-6.01;100.00;102576.71;1761204;81;21076;-89
2022/03/16 05:01:29;;;;;;;16.95;9.50;;;;;;;-5.93;100.00;102571.78;1760846;81;21041;-90
2022/03/16 05:03:59;;;;;;;15.70;9.15;;;;;;;-5.88;100.00;102570.20;1733436;81;21018;-90
2022/03/16 05:06:27;;;;;;;13.95;8.03;;;;;;;-5.84;100.00;102579.63;1761024;81;21519;-90
2022/03/16 05:08:56;;;;;;;13.48;8.18;;;;;;;-5.81;100.00;102575.91;1760720;81;20978;-90
2022/03/16 05:11:23;;;;;;;13.98;8.55;;;;;;;-5.74;100.00;102576.50;1761428;81;21075;-89
2022/03/16 05:13:50;;;;;;;14.23;8.65;;;;;;;-5.68;100.00;102576.19;1761048;81;21538;-90
2022/03/16 05:16:19;;;;;;;14.73;8.45;;;;;;;-5.60;100.00;102578.50;1733948;81;21065;-90
2022/03/16 05:18:46;;;;;;;15.00;8.15;;;;;;;-5.52;100.00;102579.54;1761650;81;21017;-90
2022/03/16 05:21:13;;;;;;;10.98;6.97;;;;;;;-5.45;100.00;102580.55;1761469;81;21261;-90
2022/03/16 05:23:40;;;;;;;13.32;7.05;;;;;;;-5.36;100.00;102584.54;1761495;81;21041;-91
2022/03/16 05:26:08;;;;;;;11.88;6.55;;;;;;;-5.25;100.00;102581.00;1761563;81;21025;-91
2022/03/16 05:28:35;;;;;;;10.72;6.87;;;;;;;-5.18;100.00;102580.31;1761519;81;21609;-89
2022/03/16 05:31:03;;;;;;;13.03;6.90;;;;;;;-5.10;100.00;102583.88;1761496;81;21494;-90
2022/03/16 05:33:30;;;;;;;9.15;6.20;;;;;;;-5.00;100.00;102589.13;1761513;81;21256;-91
2022/03/16 05:35:57;;;;;;;12.25;6.85;;;;;;;-4.94;100.00;102584.20;1761165;81;21049;-91
2022/03/16 05:38:24;;;;;;;12.85;6.75;;;;;;;-4.86;100.00;102589.42;1761674;81;21049;-90
2022/03/16 05:40:51;;;;;;;10.88;6.30;;;;;;;-4.81;100.00;102587.43;1761385;81;21020;-90
2022/03/16 05:43:21;;;;;;;12.15;6.47;;;;;;;-4.78;100.00;102587.90;1761493;81;21108;-90
2022/03/16 05:45:47;;;;;;;8.78;5.87;;;;;;;-4.72;100.00;102594.80;1757368;81;21271;-90
2022/03/16 05:48:13;;;;;;;15.93;6.05;;;;;;;-4.65;100.00;102591.55;1762024;81;21044;-89
2022/03/16 05:50:45;;;;;;;10.90;6.05;;;;;;;-4.56;100.00;102600.64;1761535;81;21073;-89
2022/03/16 05:53:10;;;;;;;9.25;5.42;;;;;;;-4.48;100.00;102599.50;1727141;81;21044;-89
2022/03/16 05:55:38;;;;;;;9.23;5.58;;;;;;;-4.40;100.00;102601.78;1761683;81;21071;-90
2022/03/16 05:58:06;;;;;;;9.20;5.58;;;;;;;-4.32;100.00;102598.97;1762569;81;21226;-89
2022/03/16 06:00:33;;;;;;;10.88;5.60;;;;;;;-4.19;100.00;102595.39;1763212;79;21605;-89
2022/03/16 06:03:01;;;;;;;12.28;6.33;;;;;;;-4.07;100.00;102593.48;1763270;79;21499;-90
2022/03/16 06:05:30;;;;;;;9.85;5.67;;;;;;;-3.95;100.00;102594.95;1763178;79;21073;-90
2022/03/16 06:07:57;;;;;;;10.10;5.45;;;;;;;-3.84;100.00;102594.73;1763542;79;20996;-89
2022/03/16 06:10:26;;;;;;;7.10;4.92;;;;;;;-3.78;100.00;102588.89;1731648;81;21357;-90
2022/03/16 06:13:03;;;;;;;7.40;5.03;;;;;;;-3.70;100.00;102587.33;1763529;79;21498;-91
2022/03/16 06:15:40;;;;;;;8.40;5.22;;;;;;;-3.61;100.00;102583.21;1769436;78;21010;-89
2022/03/16 06:18:09;;;;;;;8.30;4.37;;;;;;;-3.47;100.00;102590.64;1795000;78;21049;-89
2022/03/16 06:20:36;;;;;;;8.40;4.70;;;;;;;-3.33;100.00;102589.15;1785318;78;21013;-90
2022/03/16 06:23:08;;;;;;;7.62;4.58;;;;;;;-3.19;100.00;102588.48;1740102;79;21224;-91
2022/03/16 06:25:34;;;;;;;30.57;5.53;;;;;;;-3.08;100.00;102592.05;1733384;81;21108;-85
2022/03/16 06:28:02;;;;;;;6.97;5.12;;;;;;;-2.95;100.00;102584.14;1735071;81;21009;-85
2022/03/16 06:30:31;;;;;;;9.98;4.40;;;;;;;-2.70;100.00;102587.00;1744687;81;21113;-86
2022/03/16 06:32:58;;;;;;;7.28;4.90;;;;;;;-2.45;100.00;102583.45;1757377;81;21061;-91
2022/03/16 06:35:25;;;;;;;8.20;4.95;;;;;;;-2.12;100.00;102581.66;1747205;80;21191;-91
2022/03/16 06:37:52;;;;;;;8.83;4.45;;;;;;;-1.99;100.00;102577.52;1761741;81;21064;-92
2022/03/16 06:40:19;;;;;;;9.08;5.37;;;;;;;-1.96;100.00;102576.25;1757688;79;21089;-87
2022/03/16 06:42:57;;;;;;;5.90;4.55;;;;;;;-1.94;100.00;102577.56;1745500;80;21036;-87
2022/03/16 06:45:27;;;;;;;8.33;4.55;;;;;;;-1.70;100.00;102571.78;1752866;80;21625;-87
2022/03/16 06:47:57;;;;;;;8.33;4.20;;;;;;;-1.41;100.00;102572.42;1744643;81;21657;-87
2022/03/16 06:50:24;;;;;;;15.83;5.08;;;;;;;-1.39;100.00;102575.82;1761084;80;21029;-87
2022/03/16 06:52:54;;;;;;;31.82;5.28;;;;;;;-1.39;100.00;102568.59;1774965;79;21056;-85
2022/03/16 06:55:21;;;;;;;8.70;4.42;;;;;;;-1.38;100.00;102564.76;1760175;80;21737;-84
2022/03/16 06:57:48;;;;;;;5.92;4.00;;;;;;;-1.32;100.00;102566.50;1719637;81;21018;-85
2022/03/16 07:00:16;;;;;;;8.53;4.87;;;;;;;-1.27;100.00;102566.09;1757258;81;21184;-85
2022/03/16 07:03:01;;;;;;;8.33;4.80;;;;;;;-1.25;100.00;102567.41;1760945;81;21045;-84
2022/03/16 07:05:39;;;;;;;6.92;3.90;;;;;;;-1.21;100.00;102572.95;1755772;79;21027;-83
2022/03/16 07:08:08;;;;;;;10.43;4.78;;;;;;;-1.13;100.00;102567.45;1759795;79;21149;-85
2022/03/16 07:10:38;;;;;;;7.15;4.25;;;;;;;-1.12;100.00;102557.66;1745094;80;21049;-85
2022/03/16 07:13:11;;;;;;;7.67;4.30;;;;;;;-1.19;100.00;102568.71;1748895;80;20989;-83
2022/03/16 07:15:42;;;;;;;14.30;4.67;;;;;;;-1.26;100.00;102572.92;1746681;80;21074;-85
2022/03/16 07:18:09;;;;;;;8.20;3.17;;;;;;;-1.29;100.00;102561.42;1743252;81;21075;-83
2022/03/16 07:20:39;;;;;;;5.10;3.75;;;;;;;-1.20;100.00;102565.28;1720200;80;21653;-85
2022/03/16 07:23:14;;;;;;;7.05;4.10;;;;;;;-1.09;100.00;102556.41;1744542;80;21009;-87
2022/03/16 07:25:47;;;;;;;5.40;2.80;;;;;;;-1.00;100.00;102561.55;1754968;80;21256;-84
2022/03/16 07:28:16;;;;;;;4.90;3.30;;;;;;;-0.93;100.00;102566.27;1751415;80;21024;-83
2022/03/16 07:30:44;;;;;;;3.17;2.80;;;;;;;-0.92;100.00;102568.42;1748251;80;21017;-87
2022/03/16 07:33:14;;;;;;;3.70;2.52;;;;;;;-0.97;98.47;102565.41;1755315;80;21488;-85
2022/03/16 07:35:41;;;;;;;4.83;3.10;;;;;;;-0.97;92.93;102565.84;1755421;80;21017;-84
2022/03/16 07:38:08;;;;;;;3.72;2.25;;;;;;;-0.97;91.70;102560.29;1740778;81;21122;-84
2022/03/16 07:40:36;;;;;;;3.35;2.52;;;;;;;-0.97;90.80;102553.89;1768750;80;21044;-86
2022/03/16 07:43:07;;;;;;;3.47;2.12;;;;;;;-0.86;90.39;102559.48;1768837;80;21157;-84
2022/03/16 07:45:35;;;;;;;5.22;2.47;;;;;;;-0.71;90.34;102562.09;1768814;80;21538;-86
2022/03/16 07:48:04;;;;;;;4.70;2.27;;;;;;;-0.56;81.38;102556.59;1768614;79;21029;-86
2022/03/16 07:50:34;;;;;;;4.60;2.37;;;;;;;-0.47;80.76;102557.90;1768843;79;21041;-86
2022/03/16 07:53:03;;;;;;;3.10;2.08;;;;;;;-0.41;73.98;102548.94;1768694;80;21573;-91
2022/03/16 07:55:30;;;;;;;3.70;2.08;;;;;;;-0.34;71.37;102553.22;1778579;80;21017;-89
2022/03/16 07:57:58;;;;;;;2.52;1.90;;;;;;;-0.21;71.23;102550.25;1785457;80;21029;-91
2022/03/16 08:00:26;;;;;;;2.75;1.87;;;;;;;-0.07;68.07;102548.98;1785926;80;21092;-89
2022/03/16 08:02:54;;;;;;;8.43;2.72;;;;;;;0.04;66.73;102548.15;1786231;80;21928;-88
2022/03/16 08:05:22;;;;;;;5.42;2.12;;;;;;;0.11;64.97;102541.72;1785939;80;21060;-89
2022/03/16 08:07:50;;;;;;;6.55;2.25;;;;;;;0.22;63.45;102545.55;1785684;80;21538;-88
2022/03/16 08:10:22;;;;;;;2.85;2.10;;;;;;;0.29;60.44;102545.97;1786262;80;21546;-89
2022/03/16 08:12:50;;;;;;;4.90;2.75;;;;;;;0.35;60.97;102551.53;1786118;80;20997;-88
2022/03/16 08:15:21;;;;;;;7.25;3.00;;;;;;;0.45;58.53;102545.54;1785551;80;20998;-79
2022/03/16 08:17:47;;;;;;;4.10;2.25;;;;;;;0.50;57.46;102543.38;1785876;80;21005;-81
2022/03/16 08:20:15;;;;;;;3.67;2.45;;;;;;;0.58;57.22;102545.09;1785612;80;21013;-80
2022/03/16 08:22:42;;;;;;;6.95;3.08;;;;;;;0.65;57.38;102546.34;1785455;80;21487;-80
2022/03/16 08:25:12;;;;;;;6.80;3.17;;;;;;;0.74;55.04;102542.48;1785658;80;20978;-80
2022/03/16 08:27:40;;;;;;;4.58;2.95;;;;;;;0.76;55.41;102542.89;1785783;80;21617;-80
2022/03/16 08:30:10;;;;;;;3.37;2.77;;;;;;;0.76;55.65;102545.91;1785255;80;21048;-80
2022/03/16 08:32:40;;;;;;;8.80;3.20;;;;;;;0.76;57.16;102540.33;1785881;80;21961;-80
2022/03/16 08:35:09;;;;;;;5.42;2.98;;;;;;;0.89;59.06;102541.56;1785806;80;21076;-83
2022/03/16 08:37:37;;;;;;;3.95;2.50;;;;;;;1.06;54.87;102537.66;1783208;79;21060;-80
2022/03/16 08:40:07;;;;;;;7.00;2.60;;;;;;;1.16;54.21;102534.17;1775739;79;21194;-80
2022/03/16 08:42:34;;;;;;;5.58;3.58;;;;;;;1.14;54.02;102533.77;1774527;79;21096;-88
2022/03/16 08:45:02;;;;;;;3.80;2.62;;;;;;;0.94;54.86;102544.98;1773700;79;21033;-86
2022/03/16 08:47:31;;;;;;;3.80;2.92;;;;;;;0.72;52.62;102537.34;1772799;79;21093;-79
2022/03/16 08:49:59;;;;;;;4.37;2.62;;;;;;;0.54;52.60;102545.94;1776360;80;21092;-85
2022/03/16 08:52:27;;;;;;;7.03;3.70;;;;;;;0.36;52.56;102537.86;1755660;80;21215;-84
2022/03/16 08:54:54;;;;;;;7.50;4.22;;;;;;;0.21;53.67;102547.69;1781423;79;21063;-87
2022/03/16 08:57:23;;;;;;;5.83;3.40;;;;;;;0.09;53.55;102542.14;1790623;78;21103;-87
2022/03/16 08:59:55;;;;;;;5.45;2.90;;;;;;;0.07;54.41;102540.44;1735944;81;21188;-89
2022/03/16 09:02:24;;;;;;;4.85;3.05;;;;;;;0.08;53.72;102535.75;1743279;81;21128;-84
2022/03/16 09:04:52;;;;;;;6.15;2.98;;;;;;;0.14;54.37;102538.30;1749214;80;22057;-86
2022/03/16 09:07:29;;;;;;;6.17;3.83;;;;;;;0.13;55.78;102537.46;1741293;80;21785;-90
2022/03/16 09:10:04;;;;;;;4.92;2.85;;;;;;;0.14;55.75;102537.02;1749440;80;21558;-88
2022/03/16 09:12:39;;;;;;;7.78;4.22;;;;;;;0.12;54.60;102538.75;1724606;81;21154;-86
2022/03/16 09:15:29;;;;;;;6.62;3.65;;;;;;;0.11;56.11;102534.48;1761760;79;21588;-87
2022/03/16 09:17:59;;;;;;;5.90;3.90;;;;;;;0.27;58.84;102531.45;1734534;81;21021;-88
2022/03/16 09:20:33;;;;;;;6.70;5.05;;;;;;;0.41;55.95;102541.70;1751252;79;21536;-87
2022/03/16 09:23:06;;;;;;;16.02;7.75;;;;;;;0.30;56.48;102546.84;1750626;79;21072;-86
2022/03/16 09:25:33;;;;;;;9.40;5.90;;;;;;;0.11;56.64;102544.73;1736352;81;21060;-86
2022/03/16 09:28:08;;;;;;;9.13;5.62;;;;;;;-0.09;57.80;102544.28;1753737;80;21014;-87
2022/03/16 09:30:36;;;;;;;5.62;3.80;;;;;;;-0.09;60.02;102546.84;1762594;79;22400;-83
2022/03/16 09:33:07;;;;;;;9.73;6.35;;;;;;;0.00;58.34;102548.58;1765727;79;21027;-84
2022/03/16 09:35:35;;;;;;;7.35;4.60;;;;;;;0.02;56.23;102548.56;1766930;79;21007;-87
2022/03/16 09:38:03;;;;;;;9.00;4.62;;;;;;;-0.08;56.09;102556.69;1754290;80;21561;-86
2022/03/16 09:40:34;;;;;;;12.20;6.40;;;;;;;-0.16;56.16;102545.14;1767224;78;21041;-86
2022/03/16 09:43:08;;;;;;;31.48;17.55;;;;;;;-0.17;55.27;102542.14;1731968;79;21218;-86
2022/03/16 09:45:41;;;;;;;28.25;16.73;;;;;;;-0.13;54.96;102543.88;1742159;80;21052;-86
2022/03/16 09:48:12;;;;;;;10.05;5.78;;;;;;;-0.12;54.34;102539.15;1744908;81;21009;-85
2022/03/16 09:50:41;;;;;;;56.00;24.13;;;;;;;-0.17;54.06;102544.30;1755375;80;21064;-86
2022/03/16 09:53:15;;;;;;;26.93;13.53;;;;;;;-0.21;55.67;102545.57;1755656;80;20977;-88
2022/03/16 09:55:44;;;;;;;21.97;11.48;;;;;;;-0.27;56.12;102544.26;1754786;80;21413;-86
2022/03/16 09:58:12;;;;;;;24.57;13.08;;;;;;;-0.32;56.43;102545.13;1761627;79;21031;-87
2022/03/16 10:00:39;;;;;;;30.08;14.20;;;;;;;-0.33;56.60;102540.85;1795401;78;21101;-88
2022/03/16 10:03:09;;;;;;;29.60;16.95;;;;;;;-0.34;57.50;102533.17;1795167;78;21668;-87
2022/03/16 10:05:38;;;;;;;41.15;22.95;;;;;;;-0.31;57.33;102539.56;1795027;78;21639;-87
2022/03/16 10:08:08;;;;;;;28.45;16.55;;;;;;;-0.26;57.60;102533.17;1795551;79;21181;-87
2022/03/16 10:13:27;;;;;;;11.50;5.45;;;;;;;0.07;57.25;102531.06;1783989;79;21493;-86
2022/03/16 10:15:59;;;;;;;13.18;6.45;;;;;;;0.37;57.28;102536.14;1775034;79;21014;-86
2022/03/16 10:18:27;;;;;;;7.80;3.60;;;;;;;0.51;54.94;102530.58;1730483;80;21053;-87
2022/03/16 10:20:56;;;;;;;7.65;4.00;;;;;;;0.52;54.81;102529.70;1775367;79;21139;-88
2022/03/16 10:23:25;;;;;;;6.10;3.20;;;;;;;0.53;54.59;102527.56;1786140;79;21045;-85
2022/03/16 10:25:59;;;;;;;6.20;3.98;;;;;;;0.60;54.41;102527.12;1728480;81;21278;-86
2022/03/16 10:28:30;;;;;;;7.08;3.47;;;;;;;0.61;56.37;102522.43;1703361;81;21050;-87
2022/03/16 10:31:06;;;;;;;;;;;;;;;0.59;56.36;102527.57;1742359;79;21099;-88
2022/03/16 10:33:48;;;;;;;5.03;3.75;;;;;;;0.31;56.46;102530.17;1756790;79;20138;-86
2022/03/16 10:36:18;;;;;;;4.17;2.83;;;;;;;-0.09;57.76;102534.48;1761723;79;21688;-86
2022/03/16 10:38:53;;;;;;;6.95;3.65;;;;;;;-0.41;58.96;102529.75;1693677;81;21050;-87
2022/03/16 10:46:46;;;;;;;11.25;6.40;;;;;;;-0.66;61.02;102514.78;1699668;81;21231;-85
2022/03/16 10:49:17;;;;;;;6.58;3.55;;;;;;;-0.54;61.38;102517.79;1703635;81;21071;-86
2022/03/16 10:51:48;;;;;;;2.87;2.58;;;;;;;-0.39;62.78;102516.53;1712693;82;21642;-86
2022/03/16 10:54:18;;;;;;;4.67;2.98;;;;;;;-0.38;64.15;102519.52;1698840;82;21048;-85
2022/03/16 10:56:49;;;;;;;3.70;2.80;;;;;;;-0.52;65.33;102518.66;1714134;81;21043;-87
2022/03/16 10:59:17;;;;;;;6.53;3.47;;;;;;;-0.67;66.41;102515.63;1762928;81;21242;-87
2022/03/16 11:01:47;;;;;;;4.65;2.80;;;;;;;-0.80;65.46;102509.17;1763318;80;21076;-86
2022/03/16 11:04:14;;;;;;;6.12;4.37;;;;;;;-0.88;64.37;102512.58;1763926;79;21097;-86
2022/03/16 11:06:44;;;;;;;7.30;5.08;;;;;;;-0.93;63.88;102508.72;1761443;79;21018;-85
2022/03/16 11:09:15;;;;;;;8.90;5.10;;;;;;;-0.94;63.44;102512.56;1762540;79;21269;-87
2022/03/16 11:14:33;;;;;;;6.72;3.75;;;;;;;-0.99;65.67;102512.55;1736190;79;20237;-86
2022/03/16 11:17:03;;;;;;;7.40;3.77;;;;;;;-1.02;69.87;102510.83;1727752;81;21050;-86
2022/03/16 11:19:32;;;;;;;8.40;5.08;;;;;;;-0.99;78.33;102511.27;1764656;79;21570;-86
2022/03/16 11:22:19;;;;;;;5.85;3.83;;;;;;;-0.98;81.57;102507.42;1761092;79;22149;-86
2022/03/16 11:25:04;;;;;;;4.65;2.92;;;;;;;-0.97;78.46;102502.74;1748861;80;21368;-86
2022/03/16 11:27:46;;;;;;;4.22;3.42;;;;;;;-0.96;71.42;102503.17;1750704;80;21156;-86
2022/03/16 11:30:36;;;;;;;5.30;3.62;;;;;;;-0.95;70.29;102498.90;1745175;80;21583;-88
2022/03/16 11:33:06;;;;;;;5.47;3.47;;;;;;;-0.92;71.37;102500.64;1749414;81;21013;-86
2022/03/16 11:35:45;;;;;;;10.65;4.65;;;;;;;-0.90;69.60;102501.48;1746424;80;21034;-83